sensor_id;sensor_type;location;lat;lon;timestamp;P1;durP1;ratioP1;P2;durP2;ratioP2
42006;SDS011;27696;42.704;23.304;2023-05-07T00:01:03;15.45;;;13.10;;
42006;SDS011;27696;42.704;23.304;2023-05-07T00:03:30;23.63;;;12.90;;
42006;SDS011;27696;42.704;23.304;2023-05-07T00:05:56;17.33;;;11.60;;
42006;SDS011;27696;42.704;23.304;2023-05-07T00:08:21;14.38;;;12.75;;
42006;SDS011;27696;42.704;23.304;2023-05-07T00:10:47;18.23;;;13.45;;
42006;SDS011;27696;42.704;23.304;2023-05-07T00:13:12;15.30;;;12.27;;
42006;SDS011;27696;42.704;23.304;2023-05-07T00:15:37;14.48;;;11.82;;
42006;SDS011;27696;42.704;23.304;2023-05-07T00:18:03;14.38;;;11.38;;
42006;SDS011;27696;42.704;23.304;2023-05-07T00:20:28;14.43;;;11.30;;
42006;SDS011;27696;42.704;23.304;2023-05-07T00:22:54;13.68;;;11.63;;
42006;SDS011;27696;42.704;23.304;2023-05-07T00:25:19;16.75;;;12.10;;
42006;SDS011;27696;42.704;23.304;2023-05-07T00:27:45;15.63;;;11.65;;
42006;SDS011;27696;42.704;23.304;2023-05-07T00:30:10;13.77;;;11.13;;
42006;SDS011;27696;42.704;23.304;2023-05-07T00:32:36;15.88;;;12.00;;
42006;SDS011;27696;42.704;23.304;2023-05-07T00:35:02;13.30;;;11.68;;
42006;SDS011;27696;42.704;23.304;2023-05-07T00:37:28;15.93;;;12.25;;
42006;SDS011;27696;42.704;23.304;2023-05-07T00:39:53;12.82;;;11.45;;
42006;SDS011;27696;42.704;23.304;2023-05-07T00:42:19;14.90;;;12.13;;
42006;SDS011;27696;42.704;23.304;2023-05-07T00:44:44;14.60;;;12.05;;
42006;SDS011;27696;42.704;23.304;2023-05-07T00:47:10;20.48;;;12.32;;
42006;SDS011;27696;42.704;23.304;2023-05-07T00:49:41;14.20;;;12.38;;
42006;SDS011;27696;42.704;23.304;2023-05-07T00:52:09;15.00;;;13.27;;
42006;SDS011;27696;42.704;23.304;2023-05-07T00:54:36;13.82;;;12.30;;
42006;SDS011;27696;42.704;23.304;2023-05-07T00:57:02;14.15;;;12.70;;
42006;SDS011;27696;42.704;23.304;2023-05-07T00:59:28;16.83;;;11.75;;
42006;SDS011;27696;42.704;23.304;2023-05-07T01:01:54;18.13;;;15.05;;
42006;SDS011;27696;42.704;23.304;2023-05-07T01:04:20;16.80;;;12.68;;
42006;SDS011;27696;42.704;23.304;2023-05-07T01:06:45;17.02;;;13.00;;
42006;SDS011;27696;42.704;23.304;2023-05-07T01:09:11;17.13;;;13.02;;
42006;SDS011;27696;42.704;23.304;2023-05-07T01:11:37;14.38;;;12.60;;
42006;SDS011;27696;42.704;23.304;2023-05-07T01:14:03;15.15;;;12.52;;
42006;SDS011;27696;42.704;23.304;2023-05-07T01:16:28;17.25;;;14.07;;
42006;SDS011;27696;42.704;23.304;2023-05-07T01:18:53;14.82;;;13.25;;
42006;SDS011;27696;42.704;23.304;2023-05-07T01:21:19;15.00;;;13.38;;
42006;SDS011;27696;42.704;23.304;2023-05-07T01:23:50;16.65;;;13.35;;
42006;SDS011;27696;42.704;23.304;2023-05-07T01:26:15;19.45;;;13.88;;
42006;SDS011;27696;42.704;23.304;2023-05-07T01:28:41;18.23;;;13.32;;
42006;SDS011;27696;42.704;23.304;2023-05-07T01:31:06;14.35;;;12.75;;
42006;SDS011;27696;42.704;23.304;2023-05-07T01:33:34;21.73;;;17.45;;
42006;SDS011;27696;42.704;23.304;2023-05-07T01:36:00;18.35;;;13.65;;
42006;SDS011;27696;42.704;23.304;2023-05-07T01:38:27;17.17;;;13.65;;
42006;SDS011;27696;42.704;23.304;2023-05-07T01:40:53;15.20;;;13.15;;
42006;SDS011;27696;42.704;23.304;2023-05-07T01:43:18;24.40;;;16.73;;
42006;SDS011;27696;42.704;23.304;2023-05-07T01:45:44;15.95;;;13.75;;
42006;SDS011;27696;42.704;23.304;2023-05-07T01:48:10;14.80;;;13.00;;
42006;SDS011;27696;42.704;23.304;2023-05-07T01:50:36;17.48;;;14.43;;
42006;SDS011;27696;42.704;23.304;2023-05-07T01:53:02;15.95;;;13.98;;
42006;SDS011;27696;42.704;23.304;2023-05-07T01:55:27;16.05;;;13.65;;
42006;SDS011;27696;42.704;23.304;2023-05-07T01:57:53;17.80;;;14.50;;
42006;SDS011;27696;42.704;23.304;2023-05-07T02:00:18;15.95;;;14.25;;
42006;SDS011;27696;42.704;23.304;2023-05-07T02:02:44;15.70;;;13.73;;
42006;SDS011;27696;42.704;23.304;2023-05-07T02:05:10;17.45;;;12.38;;
42006;SDS011;27696;42.704;23.304;2023-05-07T02:07:35;25.15;;;14.48;;
42006;SDS011;27696;42.704;23.304;2023-05-07T02:10:01;15.43;;;10.38;;
42006;SDS011;27696;42.704;23.304;2023-05-07T02:12:26;11.35;;;10.10;;
42006;SDS011;27696;42.704;23.304;2023-05-07T02:14:52;13.23;;;10.05;;
42006;SDS011;27696;42.704;23.304;2023-05-07T02:17:17;12.07;;;9.57;;
42006;SDS011;27696;42.704;23.304;2023-05-07T02:19:43;10.88;;;9.30;;
42006;SDS011;27696;42.704;23.304;2023-05-07T02:22:09;13.60;;;10.07;;
42006;SDS011;27696;42.704;23.304;2023-05-07T02:24:35;12.50;;;10.07;;
42006;SDS011;27696;42.704;23.304;2023-05-07T02:27:00;10.43;;;9.18;;
42006;SDS011;27696;42.704;23.304;2023-05-07T02:29:26;10.25;;;8.90;;
42006;SDS011;27696;42.704;23.304;2023-05-07T02:31:51;10.63;;;8.77;;
42006;SDS011;27696;42.704;23.304;2023-05-07T02:34:20;10.05;;;8.95;;
42006;SDS011;27696;42.704;23.304;2023-05-07T02:36:46;17.55;;;9.23;;
42006;SDS011;27696;42.704;23.304;2023-05-07T02:39:14;13.93;;;9.90;;
42006;SDS011;27696;42.704;23.304;2023-05-07T02:41:40;10.85;;;9.15;;
42006;SDS011;27696;42.704;23.304;2023-05-07T02:44:06;13.45;;;10.68;;
42006;SDS011;27696;42.704;23.304;2023-05-07T02:46:31;16.30;;;12.45;;
42006;SDS011;27696;42.704;23.304;2023-05-07T02:48:56;16.25;;;11.95;;
42006;SDS011;27696;42.704;23.304;2023-05-07T02:51:22;14.68;;;11.80;;
42006;SDS011;27696;42.704;23.304;2023-05-07T02:53:48;14.05;;;11.95;;
42006;SDS011;27696;42.704;23.304;2023-05-07T02:56:13;24.05;;;12.48;;
42006;SDS011;27696;42.704;23.304;2023-05-07T02:58:38;13.85;;;11.82;;
42006;SDS011;27696;42.704;23.304;2023-05-07T03:01:09;13.68;;;11.95;;
42006;SDS011;27696;42.704;23.304;2023-05-07T03:03:35;20.15;;;12.27;;
42006;SDS011;27696;42.704;23.304;2023-05-07T03:06:01;15.70;;;12.57;;
42006;SDS011;27696;42.704;23.304;2023-05-07T03:08:26;18.38;;;12.48;;
42006;SDS011;27696;42.704;23.304;2023-05-07T03:10:52;16.20;;;11.82;;
42006;SDS011;27696;42.704;23.304;2023-05-07T03:13:17;14.15;;;12.43;;
42006;SDS011;27696;42.704;23.304;2023-05-07T03:15:43;13.95;;;12.50;;
42006;SDS011;27696;42.704;23.304;2023-05-07T03:18:08;18.38;;;12.63;;
42006;SDS011;27696;42.704;23.304;2023-05-07T03:20:34;15.40;;;12.73;;
42006;SDS011;27696;42.704;23.304;2023-05-07T03:23:00;16.92;;;12.27;;
42006;SDS011;27696;42.704;23.304;2023-05-07T03:25:25;17.25;;;12.07;;
42006;SDS011;27696;42.704;23.304;2023-05-07T03:27:51;17.00;;;12.85;;
42006;SDS011;27696;42.704;23.304;2023-05-07T03:30:16;15.10;;;13.18;;
42006;SDS011;27696;42.704;23.304;2023-05-07T03:32:41;17.92;;;12.63;;
42006;SDS011;27696;42.704;23.304;2023-05-07T03:35:07;18.02;;;14.50;;
42006;SDS011;27696;42.704;23.304;2023-05-07T03:37:32;18.50;;;13.65;;
42006;SDS011;27696;42.704;23.304;2023-05-07T03:39:58;19.52;;;12.95;;
42006;SDS011;27696;42.704;23.304;2023-05-07T03:42:23;17.75;;;12.43;;
42006;SDS011;27696;42.704;23.304;2023-05-07T03:44:49;20.70;;;12.85;;
42006;SDS011;27696;42.704;23.304;2023-05-07T03:47:14;17.17;;;12.15;;
42006;SDS011;27696;42.704;23.304;2023-05-07T03:49:40;13.52;;;12.07;;
42006;SDS011;27696;42.704;23.304;2023-05-07T03:52:05;19.90;;;16.73;;
42006;SDS011;27696;42.704;23.304;2023-05-07T03:54:31;20.50;;;17.33;;
42006;SDS011;27696;42.704;23.304;2023-05-07T03:56:56;15.18;;;11.98;;
42006;SDS011;27696;42.704;23.304;2023-05-07T03:59:22;14.45;;;12.57;;
42006;SDS011;27696;42.704;23.304;2023-05-07T04:01:47;16.30;;;13.32;;
42006;SDS011;27696;42.704;23.304;2023-05-07T04:04:13;16.92;;;13.70;;
42006;SDS011;27696;42.704;23.304;2023-05-07T04:06:39;19.33;;;17.33;;
42006;SDS011;27696;42.704;23.304;2023-05-07T04:09:05;17.95;;;16.05;;
42006;SDS011;27696;42.704;23.304;2023-05-07T04:11:31;23.33;;;17.05;;
42006;SDS011;27696;42.704;23.304;2023-05-07T04:13:56;25.48;;;22.88;;
42006;SDS011;27696;42.704;23.304;2023-05-07T04:16:22;30.80;;;26.00;;
42006;SDS011;27696;42.704;23.304;2023-05-07T04:18:47;26.40;;;23.55;;
42006;SDS011;27696;42.704;23.304;2023-05-07T04:21:16;18.33;;;14.90;;
42006;SDS011;27696;42.704;23.304;2023-05-07T04:23:43;16.48;;;13.15;;
42006;SDS011;27696;42.704;23.304;2023-05-07T04:26:09;14.32;;;11.63;;
42006;SDS011;27696;42.704;23.304;2023-05-07T04:28:34;14.05;;;10.38;;
42006;SDS011;27696;42.704;23.304;2023-05-07T04:31:00;15.38;;;10.75;;
42006;SDS011;27696;42.704;23.304;2023-05-07T04:33:25;13.25;;;10.35;;
42006;SDS011;27696;42.704;23.304;2023-05-07T04:35:51;13.65;;;11.02;;
42006;SDS011;27696;42.704;23.304;2023-05-07T04:38:16;16.13;;;11.25;;
42006;SDS011;27696;42.704;23.304;2023-05-07T04:40:43;21.25;;;12.07;;
42006;SDS011;27696;42.704;23.304;2023-05-07T04:43:08;15.73;;;10.85;;
42006;SDS011;27696;42.704;23.304;2023-05-07T04:45:34;12.80;;;11.15;;
42006;SDS011;27696;42.704;23.304;2023-05-07T04:48:00;12.98;;;11.48;;
42006;SDS011;27696;42.704;23.304;2023-05-07T04:50:26;15.70;;;11.75;;
42006;SDS011;27696;42.704;23.304;2023-05-07T04:52:52;12.43;;;11.05;;
42006;SDS011;27696;42.704;23.304;2023-05-07T04:55:18;14.93;;;11.20;;
42006;SDS011;27696;42.704;23.304;2023-05-07T04:57:43;13.48;;;11.68;;
42006;SDS011;27696;42.704;23.304;2023-05-07T05:00:09;14.00;;;11.15;;
42006;SDS011;27696;42.704;23.304;2023-05-07T05:02:35;17.05;;;11.60;;
42006;SDS011;27696;42.704;23.304;2023-05-07T05:05:00;14.85;;;11.68;;
42006;SDS011;27696;42.704;23.304;2023-05-07T05:07:27;13.70;;;12.30;;
42006;SDS011;27696;42.704;23.304;2023-05-07T05:09:53;13.70;;;12.13;;
42006;SDS011;27696;42.704;23.304;2023-05-07T05:12:19;15.40;;;11.70;;
42006;SDS011;27696;42.704;23.304;2023-05-07T05:14:44;15.75;;;12.15;;
42006;SDS011;27696;42.704;23.304;2023-05-07T05:17:09;17.67;;;12.13;;
42006;SDS011;27696;42.704;23.304;2023-05-07T05:19:35;17.20;;;12.27;;
42006;SDS011;27696;42.704;23.304;2023-05-07T05:22:00;13.52;;;12.15;;
42006;SDS011;27696;42.704;23.304;2023-05-07T05:24:26;15.68;;;12.10;;
42006;SDS011;27696;42.704;23.304;2023-05-07T05:26:53;14.13;;;12.18;;
42006;SDS011;27696;42.704;23.304;2023-05-07T05:29:18;17.38;;;12.85;;
42006;SDS011;27696;42.704;23.304;2023-05-07T05:31:44;22.48;;;13.32;;
42006;SDS011;27696;42.704;23.304;2023-05-07T05:34:09;15.95;;;12.63;;
42006;SDS011;27696;42.704;23.304;2023-05-07T05:36:35;14.82;;;12.75;;
42006;SDS011;27696;42.704;23.304;2023-05-07T05:39:00;15.07;;;13.52;;
42006;SDS011;27696;42.704;23.304;2023-05-07T05:41:25;19.20;;;13.77;;
42006;SDS011;27696;42.704;23.304;2023-05-07T05:43:51;15.40;;;13.50;;
42006;SDS011;27696;42.704;23.304;2023-05-07T05:46:16;16.50;;;13.15;;
42006;SDS011;27696;42.704;23.304;2023-05-07T05:48:41;19.75;;;13.68;;
42006;SDS011;27696;42.704;23.304;2023-05-07T05:51:07;18.27;;;14.75;;
42006;SDS011;27696;42.704;23.304;2023-05-07T05:53:32;17.73;;;14.60;;
42006;SDS011;27696;42.704;23.304;2023-05-07T05:55:58;16.58;;;14.80;;
42006;SDS011;27696;42.704;23.304;2023-05-07T05:58:24;15.88;;;14.27;;
42006;SDS011;27696;42.704;23.304;2023-05-07T06:00:49;21.40;;;14.88;;
42006;SDS011;27696;42.704;23.304;2023-05-07T06:03:17;18.58;;;14.30;;
42006;SDS011;27696;42.704;23.304;2023-05-07T06:05:42;17.02;;;14.32;;
42006;SDS011;27696;42.704;23.304;2023-05-07T06:08:08;15.93;;;14.30;;
42006;SDS011;27696;42.704;23.304;2023-05-07T06:10:33;19.02;;;14.73;;
42006;SDS011;27696;42.704;23.304;2023-05-07T06:12:58;17.10;;;14.30;;
42006;SDS011;27696;42.704;23.304;2023-05-07T06:15:24;15.40;;;13.88;;
42006;SDS011;27696;42.704;23.304;2023-05-07T06:17:50;17.08;;;14.98;;
42006;SDS011;27696;42.704;23.304;2023-05-07T06:20:15;19.15;;;14.77;;
42006;SDS011;27696;42.704;23.304;2023-05-07T06:22:41;17.60;;;14.93;;
42006;SDS011;27696;42.704;23.304;2023-05-07T06:25:06;17.63;;;15.27;;
42006;SDS011;27696;42.704;23.304;2023-05-07T06:27:32;19.65;;;14.73;;
42006;SDS011;27696;42.704;23.304;2023-05-07T06:29:57;16.63;;;14.95;;
42006;SDS011;27696;42.704;23.304;2023-05-07T06:32:23;16.60;;;14.63;;
42006;SDS011;27696;42.704;23.304;2023-05-07T06:34:48;16.48;;;14.45;;
42006;SDS011;27696;42.704;23.304;2023-05-07T06:37:14;16.95;;;13.73;;
42006;SDS011;27696;42.704;23.304;2023-05-07T06:39:39;20.45;;;15.20;;
42006;SDS011;27696;42.704;23.304;2023-05-07T06:42:05;16.80;;;14.55;;
42006;SDS011;27696;42.704;23.304;2023-05-07T06:44:31;15.32;;;13.45;;
42006;SDS011;27696;42.704;23.304;2023-05-07T06:46:56;18.33;;;14.60;;
42006;SDS011;27696;42.704;23.304;2023-05-07T06:49:22;17.60;;;14.57;;
42006;SDS011;27696;42.704;23.304;2023-05-07T06:51:47;17.65;;;14.75;;
42006;SDS011;27696;42.704;23.304;2023-05-07T06:54:13;19.02;;;15.07;;
42006;SDS011;27696;42.704;23.304;2023-05-07T06:56:38;15.95;;;14.32;;
42006;SDS011;27696;42.704;23.304;2023-05-07T06:59:03;18.52;;;13.70;;
42006;SDS011;27696;42.704;23.304;2023-05-07T07:01:29;13.93;;;12.48;;
42006;SDS011;27696;42.704;23.304;2023-05-07T07:03:54;15.82;;;14.13;;
42006;SDS011;27696;42.704;23.304;2023-05-07T07:06:20;19.08;;;13.80;;
42006;SDS011;27696;42.704;23.304;2023-05-07T07:08:45;16.58;;;13.23;;
42006;SDS011;27696;42.704;23.304;2023-05-07T07:11:11;14.50;;;12.88;;
42006;SDS011;27696;42.704;23.304;2023-05-07T07:13:36;15.45;;;13.40;;
42006;SDS011;27696;42.704;23.304;2023-05-07T07:16:02;18.52;;;13.27;;
42006;SDS011;27696;42.704;23.304;2023-05-07T07:18:27;15.75;;;11.73;;
42006;SDS011;27696;42.704;23.304;2023-05-07T07:20:53;15.77;;;12.40;;
42006;SDS011;27696;42.704;23.304;2023-05-07T07:23:18;14.15;;;12.07;;
42006;SDS011;27696;42.704;23.304;2023-05-07T07:25:44;18.52;;;12.23;;
42006;SDS011;27696;42.704;23.304;2023-05-07T07:28:09;13.88;;;12.35;;
42006;SDS011;27696;42.704;23.304;2023-05-07T07:30:36;14.32;;;11.95;;
42006;SDS011;27696;42.704;23.304;2023-05-07T07:33:01;17.20;;;11.82;;
42006;SDS011;27696;42.704;23.304;2023-05-07T07:35:30;19.38;;;13.20;;
42006;SDS011;27696;42.704;23.304;2023-05-07T07:37:58;17.98;;;11.75;;
42006;SDS011;27696;42.704;23.304;2023-05-07T07:40:24;14.65;;;13.15;;
42006;SDS011;27696;42.704;23.304;2023-05-07T07:42:50;16.70;;;11.77;;
42006;SDS011;27696;42.704;23.304;2023-05-07T07:45:16;15.35;;;13.70;;
42006;SDS011;27696;42.704;23.304;2023-05-07T07:47:42;21.00;;;12.68;;
42006;SDS011;27696;42.704;23.304;2023-05-07T07:50:07;14.68;;;12.27;;
42006;SDS011;27696;42.704;23.304;2023-05-07T07:52:35;16.65;;;12.18;;
42006;SDS011;27696;42.704;23.304;2023-05-07T07:55:00;14.75;;;12.27;;
42006;SDS011;27696;42.704;23.304;2023-05-07T07:57:26;16.25;;;11.00;;
42006;SDS011;27696;42.704;23.304;2023-05-07T07:59:52;14.38;;;12.20;;
42006;SDS011;27696;42.704;23.304;2023-05-07T08:02:17;12.13;;;10.90;;
42006;SDS011;27696;42.704;23.304;2023-05-07T08:04:43;12.88;;;11.57;;
42006;SDS011;27696;42.704;23.304;2023-05-07T08:07:09;14.35;;;10.30;;
42006;SDS011;27696;42.704;23.304;2023-05-07T08:09:35;11.48;;;10.32;;
42006;SDS011;27696;42.704;23.304;2023-05-07T08:12:00;14.75;;;10.52;;
42006;SDS011;27696;42.704;23.304;2023-05-07T08:14:26;16.90;;;10.02;;
42006;SDS011;27696;42.704;23.304;2023-05-07T08:16:53;14.35;;;10.25;;
42006;SDS011;27696;42.704;23.304;2023-05-07T08:19:19;15.68;;;9.00;;
42006;SDS011;27696;42.704;23.304;2023-05-07T08:21:44;10.43;;;9.30;;
42006;SDS011;27696;42.704;23.304;2023-05-07T08:24:10;10.43;;;8.77;;
42006;SDS011;27696;42.704;23.304;2023-05-07T08:26:36;11.00;;;9.02;;
42006;SDS011;27696;42.704;23.304;2023-05-07T08:29:04;10.45;;;9.02;;
42006;SDS011;27696;42.704;23.304;2023-05-07T08:31:29;13.88;;;8.52;;
42006;SDS011;27696;42.704;23.304;2023-05-07T08:33:55;11.55;;;8.30;;
42006;SDS011;27696;42.704;23.304;2023-05-07T08:36:21;9.52;;;7.80;;
42006;SDS011;27696;42.704;23.304;2023-05-07T08:38:47;13.98;;;7.55;;
42006;SDS011;27696;42.704;23.304;2023-05-07T08:41:12;11.27;;;8.43;;
42006;SDS011;27696;42.704;23.304;2023-05-07T08:43:38;9.70;;;8.70;;
42006;SDS011;27696;42.704;23.304;2023-05-07T08:46:06;10.25;;;7.85;;
42006;SDS011;27696;42.704;23.304;2023-05-07T08:48:34;8.55;;;7.07;;
42006;SDS011;27696;42.704;23.304;2023-05-07T08:51:00;10.02;;;7.68;;
42006;SDS011;27696;42.704;23.304;2023-05-07T08:53:25;10.73;;;7.38;;
42006;SDS011;27696;42.704;23.304;2023-05-07T08:55:51;10.35;;;7.05;;
42006;SDS011;27696;42.704;23.304;2023-05-07T08:58:16;7.00;;;5.85;;
42006;SDS011;27696;42.704;23.304;2023-05-07T09:00:42;8.30;;;7.35;;
42006;SDS011;27696;42.704;23.304;2023-05-07T09:03:07;10.52;;;7.30;;
42006;SDS011;27696;42.704;23.304;2023-05-07T09:05:33;9.10;;;6.75;;
42006;SDS011;27696;42.704;23.304;2023-05-07T09:07:59;8.85;;;7.32;;
42006;SDS011;27696;42.704;23.304;2023-05-07T09:10:25;8.48;;;7.65;;
42006;SDS011;27696;42.704;23.304;2023-05-07T09:12:51;8.52;;;7.47;;
42006;SDS011;27696;42.704;23.304;2023-05-07T09:15:18;8.43;;;7.00;;
42006;SDS011;27696;42.704;23.304;2023-05-07T09:17:44;9.45;;;7.07;;
42006;SDS011;27696;42.704;23.304;2023-05-07T09:20:09;9.35;;;6.65;;
42006;SDS011;27696;42.704;23.304;2023-05-07T09:22:38;9.10;;;6.75;;
42006;SDS011;27696;42.704;23.304;2023-05-07T09:25:04;7.68;;;6.75;;
42006;SDS011;27696;42.704;23.304;2023-05-07T09:27:34;5.80;;;5.20;;
42006;SDS011;27696;42.704;23.304;2023-05-07T09:30:02;11.75;;;5.70;;
42006;SDS011;27696;42.704;23.304;2023-05-07T09:32:28;8.80;;;6.32;;
42006;SDS011;27696;42.704;23.304;2023-05-07T09:34:55;6.28;;;5.70;;
42006;SDS011;27696;42.704;23.304;2023-05-07T09:37:21;7.25;;;6.20;;
42006;SDS011;27696;42.704;23.304;2023-05-07T09:39:47;7.50;;;5.80;;
42006;SDS011;27696;42.704;23.304;2023-05-07T09:42:13;7.50;;;5.72;;
42006;SDS011;27696;42.704;23.304;2023-05-07T09:44:43;8.73;;;5.55;;
42006;SDS011;27696;42.704;23.304;2023-05-07T09:47:09;7.72;;;4.38;;
42006;SDS011;27696;42.704;23.304;2023-05-07T09:49:36;5.65;;;4.75;;
42006;SDS011;27696;42.704;23.304;2023-05-07T09:52:04;8.77;;;4.95;;
42006;SDS011;27696;42.704;23.304;2023-05-07T09:54:35;7.88;;;4.80;;
42006;SDS011;27696;42.704;23.304;2023-05-07T09:57:02;5.60;;;4.45;;
42006;SDS011;27696;42.704;23.304;2023-05-07T09:59:29;5.45;;;3.85;;
42006;SDS011;27696;42.704;23.304;2023-05-07T10:01:57;9.52;;;4.50;;
42006;SDS011;27696;42.704;23.304;2023-05-07T10:04:24;5.25;;;4.75;;
42006;SDS011;27696;42.704;23.304;2023-05-07T10:06:50;5.60;;;4.40;;
42006;SDS011;27696;42.704;23.304;2023-05-07T10:09:16;5.70;;;4.10;;
42006;SDS011;27696;42.704;23.304;2023-05-07T10:11:42;5.25;;;3.92;;
42006;SDS011;27696;42.704;23.304;2023-05-07T10:14:08;7.50;;;3.85;;
42006;SDS011;27696;42.704;23.304;2023-05-07T10:16:34;5.55;;;3.75;;
42006;SDS011;27696;42.704;23.304;2023-05-07T10:19:05;4.07;;;3.65;;
42006;SDS011;27696;42.704;23.304;2023-05-07T10:21:31;5.40;;;3.60;;
42006;SDS011;27696;42.704;23.304;2023-05-07T10:24:05;5.97;;;3.35;;
42006;SDS011;27696;42.704;23.304;2023-05-07T10:29:05;5.38;;;3.38;;
42006;SDS011;27696;42.704;23.304;2023-05-07T10:34:40;8.25;;;3.75;;
42006;SDS011;27696;42.704;23.304;2023-05-07T10:37:08;4.35;;;3.38;;
42006;SDS011;27696;42.704;23.304;2023-05-07T10:39:34;4.35;;;3.00;;
42006;SDS011;27696;42.704;23.304;2023-05-07T10:42:13;6.25;;;3.67;;
42006;SDS011;27696;42.704;23.304;2023-05-07T10:44:39;4.95;;;3.47;;
42006;SDS011;27696;42.704;23.304;2023-05-07T10:50:19;7.35;;;3.20;;
42006;SDS011;27696;42.704;23.304;2023-05-07T10:52:31;6.05;;;3.20;;
42006;SDS011;27696;42.704;23.304;2023-05-07T10:57:40;6.93;;;3.75;;
42006;SDS011;27696;42.704;23.304;2023-05-07T11:05:23;5.15;;;3.33;;
42006;SDS011;27696;42.704;23.304;2023-05-07T11:08:02;6.88;;;3.42;;
42006;SDS011;27696;42.704;23.304;2023-05-07T11:13:13;5.88;;;3.10;;
42006;SDS011;27696;42.704;23.304;2023-05-07T11:15:39;4.63;;;3.42;;
42006;SDS011;27696;42.704;23.304;2023-05-07T11:18:10;5.10;;;2.90;;
42006;SDS011;27696;42.704;23.304;2023-05-07T11:20:46;4.90;;;2.70;;
42006;SDS011;27696;42.704;23.304;2023-05-07T11:26:06;2.50;;;2.30;;
42006;SDS011;27696;42.704;23.304;2023-05-07T11:28:42;4.10;;;2.60;;
42006;SDS011;27696;42.704;23.304;2023-05-07T11:31:09;3.55;;;3.25;;
42006;SDS011;27696;42.704;23.304;2023-05-07T11:33:35;3.38;;;2.90;;
42006;SDS011;27696;42.704;23.304;2023-05-07T11:36:02;2.95;;;2.65;;
42006;SDS011;27696;42.704;23.304;2023-05-07T11:38:28;3.58;;;2.50;;
42006;SDS011;27696;42.704;23.304;2023-05-07T11:40:55;2.70;;;2.50;;
42006;SDS011;27696;42.704;23.304;2023-05-07T11:43:22;4.70;;;3.17;;
42006;SDS011;27696;42.704;23.304;2023-05-07T11:45:47;7.25;;;2.78;;
42006;SDS011;27696;42.704;23.304;2023-05-07T11:48:14;6.47;;;3.20;;
42006;SDS011;27696;42.704;23.304;2023-05-07T11:53:24;5.63;;;3.13;;
42006;SDS011;27696;42.704;23.304;2023-05-07T11:55:53;6.30;;;2.95;;
42006;SDS011;27696;42.704;23.304;2023-05-07T11:58:21;4.82;;;2.80;;
42006;SDS011;27696;42.704;23.304;2023-05-07T12:00:50;2.55;;;2.30;;
42006;SDS011;27696;42.704;23.304;2023-05-07T12:03:16;3.92;;;2.50;;
42006;SDS011;27696;42.704;23.304;2023-05-07T12:05:42;4.35;;;2.38;;
42006;SDS011;27696;42.704;23.304;2023-05-07T12:08:08;2.60;;;1.98;;
42006;SDS011;27696;42.704;23.304;2023-05-07T12:10:42;3.47;;;1.88;;
42006;SDS011;27696;42.704;23.304;2023-05-07T12:13:18;2.30;;;2.10;;
42006;SDS011;27696;42.704;23.304;2023-05-07T12:15:44;2.58;;;1.98;;
42006;SDS011;27696;42.704;23.304;2023-05-07T12:18:13;3.92;;;2.20;;
42006;SDS011;27696;42.704;23.304;2023-05-07T12:20:39;2.60;;;1.83;;
42006;SDS011;27696;42.704;23.304;2023-05-07T12:23:04;2.70;;;2.13;;
42006;SDS011;27696;42.704;23.304;2023-05-07T12:25:36;2.95;;;2.38;;
42006;SDS011;27696;42.704;23.304;2023-05-07T12:28:03;4.60;;;2.92;;
42006;SDS011;27696;42.704;23.304;2023-05-07T12:30:30;4.07;;;2.33;;
42006;SDS011;27696;42.704;23.304;2023-05-07T12:33:05;5.13;;;2.65;;
42006;SDS011;27696;42.704;23.304;2023-05-07T12:35:31;3.45;;;2.50;;
42006;SDS011;27696;42.704;23.304;2023-05-07T12:38:01;3.20;;;2.40;;
42006;SDS011;27696;42.704;23.304;2023-05-07T12:40:39;5.13;;;2.50;;
42006;SDS011;27696;42.704;23.304;2023-05-07T12:43:15;3.53;;;2.63;;
42006;SDS011;27696;42.704;23.304;2023-05-07T12:45:42;4.10;;;2.80;;
42006;SDS011;27696;42.704;23.304;2023-05-07T12:48:09;4.88;;;2.50;;
42006;SDS011;27696;42.704;23.304;2023-05-07T12:50:35;4.43;;;3.53;;
42006;SDS011;27696;42.704;23.304;2023-05-07T12:53:00;3.42;;;3.13;;
42006;SDS011;27696;42.704;23.304;2023-05-07T12:55:30;3.65;;;2.65;;
42006;SDS011;27696;42.704;23.304;2023-05-07T12:57:56;7.90;;;3.60;;
42006;SDS011;27696;42.704;23.304;2023-05-07T13:00:37;3.17;;;2.53;;
42006;SDS011;27696;42.704;23.304;2023-05-07T13:03:03;3.70;;;2.50;;
42006;SDS011;27696;42.704;23.304;2023-05-07T13:05:29;3.58;;;2.30;;
42006;SDS011;27696;42.704;23.304;2023-05-07T13:07:55;3.72;;;2.42;;
42006;SDS011;27696;42.704;23.304;2023-05-07T13:10:21;2.95;;;2.50;;
42006;SDS011;27696;42.704;23.304;2023-05-07T13:12:48;3.45;;;2.33;;
42006;SDS011;27696;42.704;23.304;2023-05-07T13:15:14;5.35;;;2.40;;
42006;SDS011;27696;42.704;23.304;2023-05-07T13:17:39;3.38;;;2.10;;
42006;SDS011;27696;42.704;23.304;2023-05-07T13:20:05;8.30;;;2.55;;
42006;SDS011;27696;42.704;23.304;2023-05-07T13:22:31;3.95;;;2.10;;
42006;SDS011;27696;42.704;23.304;2023-05-07T13:24:57;4.22;;;2.40;;
42006;SDS011;27696;42.704;23.304;2023-05-07T13:27:22;6.13;;;3.28;;
42006;SDS011;27696;42.704;23.304;2023-05-07T13:29:47;3.10;;;2.38;;
42006;SDS011;27696;42.704;23.304;2023-05-07T13:32:13;2.67;;;2.00;;
42006;SDS011;27696;42.704;23.304;2023-05-07T13:34:40;3.47;;;2.30;;
42006;SDS011;27696;42.704;23.304;2023-05-07T13:37:05;4.13;;;2.30;;
42006;SDS011;27696;42.704;23.304;2023-05-07T13:39:32;2.80;;;2.22;;
42006;SDS011;27696;42.704;23.304;2023-05-07T13:41:58;3.13;;;2.30;;
42006;SDS011;27696;42.704;23.304;2023-05-07T13:44:23;4.50;;;2.50;;
42006;SDS011;27696;42.704;23.304;2023-05-07T13:46:48;4.97;;;2.80;;
42006;SDS011;27696;42.704;23.304;2023-05-07T13:49:14;5.35;;;3.10;;
42006;SDS011;27696;42.704;23.304;2023-05-07T13:51:39;5.05;;;2.45;;
42006;SDS011;27696;42.704;23.304;2023-05-07T13:54:05;6.40;;;2.45;;
42006;SDS011;27696;42.704;23.304;2023-05-07T13:56:32;3.92;;;2.88;;
42006;SDS011;27696;42.704;23.304;2023-05-07T13:58:58;2.72;;;2.15;;
42006;SDS011;27696;42.704;23.304;2023-05-07T14:01:23;3.22;;;2.30;;
42006;SDS011;27696;42.704;23.304;2023-05-07T14:03:49;2.53;;;2.33;;
42006;SDS011;27696;42.704;23.304;2023-05-07T14:06:14;3.20;;;2.40;;
42006;SDS011;27696;42.704;23.304;2023-05-07T14:08:40;6.88;;;3.40;;
42006;SDS011;27696;42.704;23.304;2023-05-07T14:11:05;3.63;;;2.55;;
42006;SDS011;27696;42.704;23.304;2023-05-07T14:13:31;2.88;;;2.67;;
42006;SDS011;27696;42.704;23.304;2023-05-07T14:15:57;4.15;;;2.70;;
42006;SDS011;27696;42.704;23.304;2023-05-07T14:18:23;2.92;;;2.47;;
42006;SDS011;27696;42.704;23.304;2023-05-07T14:20:48;4.10;;;2.30;;
42006;SDS011;27696;42.704;23.304;2023-05-07T14:23:14;4.97;;;2.88;;
42006;SDS011;27696;42.704;23.304;2023-05-07T14:25:39;4.03;;;2.50;;
42006;SDS011;27696;42.704;23.304;2023-05-07T14:28:06;3.83;;;2.35;;
42006;SDS011;27696;42.704;23.304;2023-05-07T14:30:31;2.78;;;2.08;;
42006;SDS011;27696;42.704;23.304;2023-05-07T14:32:57;5.85;;;2.30;;
42006;SDS011;27696;42.704;23.304;2023-05-07T14:35:22;2.88;;;2.33;;
42006;SDS011;27696;42.704;23.304;2023-05-07T14:37:47;3.40;;;2.40;;